地図

経路データ

SID SEASON NUMBER BASIN SUBBASIN NAME ISO_TIME NATURE LAT LON WMO_WIND WMO_PRES WMO_AGENCY TRACK_TYPE DIST2LAND LANDFALL IFLAG USA_AGENCY USA_ATCF_ID USA_LAT USA_LON USA_RECORD USA_STATUS USA_WIND USA_PRES USA_SSHS USA_R34_NE USA_R34_SE USA_R34_SW USA_R34_NW USA_R50_NE USA_R50_SE USA_R50_SW USA_R50_NW USA_R64_NE USA_R64_SE USA_R64_SW USA_R64_NW USA_POCI USA_ROCI USA_RMW USA_EYE TOKYO_LAT TOKYO_LON TOKYO_GRADE TOKYO_WIND TOKYO_PRES TOKYO_R50_DIR TOKYO_R50_LONG TOKYO_R50_SHORT TOKYO_R30_DIR TOKYO_R30_LONG TOKYO_R30_SHORT TOKYO_LAND CMA_LAT CMA_LON CMA_CAT CMA_WIND CMA_PRES HKO_LAT HKO_LON HKO_CAT HKO_WIND HKO_PRES NEWDELHI_LAT NEWDELHI_LON NEWDELHI_GRADE NEWDELHI_WIND NEWDELHI_PRES NEWDELHI_CI NEWDELHI_DP NEWDELHI_POCI REUNION_LAT REUNION_LON REUNION_TYPE REUNION_WIND REUNION_PRES REUNION_TNUM REUNION_CI REUNION_RMW REUNION_R34_NE REUNION_R34_SE REUNION_R34_SW REUNION_R34_NW REUNION_R50_NE REUNION_R50_SE REUNION_R50_SW REUNION_R50_NW REUNION_R64_NE REUNION_R64_SE REUNION_R64_SW REUNION_R64_NW BOM_LAT BOM_LON BOM_TYPE BOM_WIND BOM_PRES BOM_TNUM BOM_CI BOM_RMW BOM_R34_NE BOM_R34_SE BOM_R34_SW BOM_R34_NW BOM_R50_NE BOM_R50_SE BOM_R50_SW BOM_R50_NW BOM_R64_NE BOM_R64_SE BOM_R64_SW BOM_R64_NW BOM_ROCI BOM_POCI BOM_EYE BOM_POS_METHOD BOM_PRES_METHOD NADI_LAT NADI_LON NADI_CAT NADI_WIND NADI_PRES WELLINGTON_LAT WELLINGTON_LON WELLINGTON_WIND WELLINGTON_PRES DS824_LAT DS824_LON DS824_STAGE DS824_WIND DS824_PRES TD9636_LAT TD9636_LON TD9636_STAGE TD9636_WIND TD9636_PRES TD9635_LAT TD9635_LON TD9635_WIND TD9635_PRES TD9635_ROCI NEUMANN_LAT NEUMANN_LON NEUMANN_CLASS NEUMANN_WIND NEUMANN_PRES MLC_LAT MLC_LON MLC_CLASS MLC_WIND MLC_PRES USA_GUST BOM_GUST BOM_GUST_PER REUNION_GUST REUNION_GUST_PER USA_SEAHGT USA_SEARAD_NE USA_SEARAD_SE USA_SEARAD_SW USA_SEARAD_NW STORM_SPEED STORM_DIR
2002335S13182 2003 94 SP MM YOLANDE 2002-12-01 06:00:00 TS -13.2000 -178.300 main 387 377 O___________O_ jtwc_sh SH042003 -13.2000 -178.300 TD 25 1002 -1 -13.2000 -178.300 TC 25 4 138
2002335S13182 2003 94 SP MM YOLANDE 2002-12-01 09:00:00 TS -13.3500 -178.160 main 374 374 P___________P_ SH042003 -13.3500 -178.160 TD 25 1002 -1 -13.3500 -178.160 TC 25 4 136
2002335S13182 2003 94 SP MM YOLANDE 2002-12-01 12:00:00 TS -13.5000 -178.000 main 377 375 O___________O_ jtwc_sh SH042003 -13.5000 -178.000 TD 25 1002 -1 -13.5000 -178.000 TC 25 5 131
2002335S13182 2003 94 SP MM YOLANDE 2002-12-01 15:00:00 TS -13.6500 -177.807 main 381 372 P___________P_ SH042003 -13.6500 -177.807 TD 25 1002 -1 -13.6500 -177.807 TC 25 5 128
2002335S13182 2003 94 SP MM YOLANDE 2002-12-01 18:00:00 TS -13.8000 -177.600 main 379 379 O___________O_ jtwc_sh SH042003 -13.8000 -177.600 TD 25 1002 -1 -13.8000 -177.600 TC 25 5 123
2002335S13182 2003 94 SP MM YOLANDE 2002-12-01 21:00:00 TS -13.9275 -177.370 main 387 387 P___________P_ SH042003 -13.9275 -177.370 TD 25 1002 -1 -13.9275 -177.370 TC 25 5 128
2002335S13182 2003 94 SP MM YOLANDE 2002-12-02 00:00:00 TS -14.1000 -177.200 main 390 370 O___________O_ jtwc_sh SH042003 -14.1000 -177.200 TD 25 1002 -1 -14.1000 -177.200 TC 25 5 157
2002335S13182 2003 94 SP MM YOLANDE 2002-12-02 03:00:00 TS -14.3925 -177.162 main 370 353 P___________P_ SH042003 -14.3925 -177.162 TD 25 1002 -1 -14.3925 -177.162 TC 25 6 179
2002335S13182 2003 94 SP MM YOLANDE 2002-12-02 06:00:00 TS -14.7000 -177.200 main 353 343 O___________O_ jtwc_sh SH042003 -14.7000 -177.200 TD 25 1002 -1 -14.7000 -177.200 TC 25 5 188
2002335S13182 2003 94 SP MM YOLANDE 2002-12-02 09:00:00 TS -14.9300 -177.235 main 343 324 P___________P_ SH042003 -14.9300 -177.235 TD 25 1002 -1 -14.9300 -177.235 TC 25 4 193
2002335S13182 2003 94 SP MM YOLANDE 2002-12-02 12:00:00 TS -15.1000 -177.300 main 324 310 O___________O_ jtwc_sh SH042003 -15.1000 -177.300 TD 25 1002 -1 -15.1000 -177.300 TC 25 3 209
2002335S13182 2003 94 SP MM YOLANDE 2002-12-02 15:00:00 TS -15.2150 -177.400 main 310 296 P___________P_ SH042003 -15.2150 -177.400 TD 25 1002 -1 -15.2150 -177.400 TC 25 3 224
2002335S13182 2003 94 SP MM YOLANDE 2002-12-02 18:00:00 TS -15.3000 -177.500 main 296 292 O___________O_ jtwc_sh SH042003 -15.3000 -177.500 TD 25 1002 -1 -15.3000 -177.500 TC 25 2 217
2002335S13182 2003 94 SP MM YOLANDE 2002-12-02 21:00:00 TS -15.4075 -177.550 main 282 278 P___________P_ SH042003 -15.4075 -177.550 TD 25 1002 -1 -15.4075 -177.550 TC 25 2 207
2002335S13182 2003 94 SP MM YOLANDE 2002-12-03 00:00:00 TS -15.5000 -177.600 main 278 265 O___________O_ jtwc_sh SH042003 -15.5000 -177.600 TD 25 1002 -1 -15.5000 -177.600 TC 25 2 221
2002335S13182 2003 94 SP MM YOLANDE 2002-12-03 03:00:00 TS -15.5575 -177.685 main 265 255 P___________P_ SH042003 -15.5575 -177.685 TD 25 1002 -1 -15.5575 -177.685 TC 25 2 243
2002335S13182 2003 94 SP MM YOLANDE 2002-12-03 06:00:00 TS -15.6000 -177.800 main 255 234 O___________O_ jtwc_sh SH042003 -15.6000 -177.800 TD 25 1002 -1 -15.6000 -177.800 TC 25 3 254
2002335S13182 2003 94 SP MM YOLANDE 2002-12-03 09:00:00 TS -15.6350 -177.965 main 234 221 P___________P_ SH042003 -15.6350 -177.965 TD 25 1002 -1 -15.6350 -177.965 TC 25 3 251
2002335S13182 2003 94 SP MM YOLANDE 2002-12-03 12:00:00 TS -15.7000 -178.100 main 221 218 O___________O_ jtwc_sh SH042003 -15.7000 -178.100 TD 25 1002 -1 -15.7000 -178.100 TC 25 2 222
2002335S13182 2003 94 SP MM YOLANDE 2002-12-03 15:00:00 TS -15.8050 -178.123 main 218 203 P___________P_ SH042003 -15.8050 -178.123 TD 25 1002 -1 -15.8050 -178.123 TC 25 4 195
2002335S13182 2003 94 SP MM YOLANDE 2002-12-03 18:00:00 TS -16.1300 -178.220 20 1002 nadi main 203 202 O_______O___O_ jtwc_sh SH042003 -16.0000 -178.100 TD 25 1002 -1 -16.3000 -178.400 -1 20 1002 -17.0000 -179.000 25 1000 -16.0000 -178.100 TC 25 5 185
2002335S13182 2003 94 SP MM YOLANDE 2002-12-03 21:00:00 TS -16.2928 -178.152 main 203 203 P______IO___P_ SH042003 -16.2899 -178.160 TD 27 1005 -1 -16.5972 -178.274 -1 22 1001 -16.0000 -178.000 25 1000 -16.2899 -178.160 TC 27 7 163
2002335S13182 2003 94 SP MM YOLANDE 2002-12-04 00:00:00 TS -16.7857 -178.014 25 1000 nadi main 223 223 O_______O___O_ jtwc_sh SH042003 -16.7000 -178.100 TD 30 1009 -1 -17.0000 -178.000 -1 25 1000 -16.8000 -177.800 25 1000 -16.7000 -178.100 TC 30 12 154
2002335S13182 2003 94 SP MM YOLANDE 2002-12-04 03:00:00 TS -17.3404 -177.618 main 271 271 P______IP___P_ SH042003 -17.2051 -177.775 TD 30 1009 -1 -17.5704 -177.501 -1 25 1000 -17.3809 -177.420 25 1000 -17.2051 -177.775 TC 30 14 144
2002335S13182 2003 94 SP MM YOLANDE 2002-12-04 06:00:00 TS -17.9250 -177.150 25 1000 nadi main 341 341 O_______O___O_ jtwc_sh SH042003 -17.8000 -177.300 TD 30 1009 -1 1006 120 50 -18.2000 -177.000 -1 25 1000 -17.9000 -177.000 25 1000 -17.8000 -177.300 TC 30 15 149
2002335S13182 2003 94 SP MM YOLANDE 2002-12-04 09:00:00 TS -18.5978 -176.808 main 403 403 P______IP___P_ SH042003 -18.4798 -176.830 TD 32 1007 -1 1006 120 50 -18.7945 -176.807 -1 25 999 -18.6372 -176.765 25 999 -18.4798 -176.830 TC 32 15 152
2002335S13182 2003 94 SP MM YOLANDE 2002-12-04 12:00:00 TS -19.2000 -176.425 25 999 nadi main 474 474 O_______O___O_ jtwc_sh SH042003 -19.1000 -176.300 TS 35 1005 0 1006 120 50 -19.3000 -176.600 -1 25 999 -19.3000 -176.500 25 998 -19.1000 -176.300 TC 35 13 139
2002335S13182 2003 94 SP MM YOLANDE 2002-12-04 15:00:00 TS -19.5719 -175.898 main 543 543 P______IP___P_ SH042003 -19.4875 -175.707 TS 35 1005 0 -19.6450 -176.117 -1 27 998 -19.6674 -176.060 27 998 -19.4875 -175.707 TC 35 12 122
2002335S13182 2003 94 SP MM YOLANDE 2002-12-04 18:00:00 TS -19.8500 -175.300 30 998 nadi main 607 607 O_______O___O_ jtwc_sh SH042003 -19.8000 -175.100 TS 35 1005 0 -19.9000 -175.500 -1 30 998 -19.9000 -175.500 30 998 -19.8000 -175.100 TC 35 13 118
2002335S13182 2003 94 SP MM YOLANDE 2002-12-04 21:00:00 TS -20.1824 -174.702 main 684 684 P______IP___P_ SH042003 -20.2146 -174.557 TS 35 1001 0 -20.1501 -174.842 -1 32 996 -20.1502 -174.850 32 996 -20.2146 -174.557 TC 35 13 120
2002335S13182 2003 94 SP MM YOLANDE 2002-12-05 00:00:00 TS -20.5000 -174.100 35 995 nadi main 755 755 O_______O___O_ jtwc_sh SH042003 -20.6000 -174.000 TS 35 997 0 -20.4000 -174.200 -1 35 995 -20.4000 -174.200 35 995 -20.6000 -174.000 TC 35 13 119
2002335S13182 2003 94 SP MM YOLANDE 2002-12-05 03:00:00 TS -20.7934 -173.529 main 789 787 P______IP___P_ SH042003 -20.9023 -173.372 TS 35 997 0 -20.6846 -173.685 -1 35 995 -20.6846 -173.685 35 995 -20.9023 -173.372 TC 35 12 118
2002335S13182 2003 94 SP MM YOLANDE 2002-12-05 06:00:00 TS -21.0429 -172.986 35 995 nadi main 806 806 O_______O___O_ jtwc_sh SH042003 -21.1000 -172.700 TS 35 997 0 -21.0000 -173.200 -1 35 995 -21.0000 -173.200 35 995 -21.1000 -172.700 TC 35 11 116
2002335S13182 2003 94 SP MM YOLANDE 2002-12-05 09:00:00 TS -21.2892 -172.450 main 839 839 P______IP___P_ SH042003 -21.1831 -172.005 TS 32 998 -1 -21.3422 -172.672 -1 32 995 -21.3422 -172.672 32 995 -21.1831 -172.005 TC 32 11 120
2002335S13182 2003 94 SP MM YOLANDE 2002-12-05 12:00:00 TS -21.6000 -171.940 30 996 nadi main 873 873 O_______O___O_ jtwc_sh SH042003 -21.2000 -171.300 TD 30 1000 -1 -21.7000 -172.100 -1 30 996 -21.7000 -172.100 30 996 -21.2000 -171.300 TC 30 12 129
2002335S13182 2003 94 SP MM YOLANDE 2002-12-05 15:00:00 NR -22.0424 -171.465 main 920 920 _______IP_____ SH042003 TD -1 -22.0424 -171.465 -1 30 996 -22.0424 -171.465 30 996 TC 13 127
2002335S13182 2003 94 SP MM YOLANDE 2002-12-05 18:00:00 NR -22.4000 -170.800 30 996 nadi main 973 973 ________O_____ -22.4000 -170.800 -1 30 996 -22.4000 -170.800 30 996 15 121
2002335S13182 2003 94 SP MM YOLANDE 2002-12-05 21:00:00 NR -22.7926 -170.120 main 1030 1030 _______IP_____ -22.7926 -170.120 -1 30 996 -22.7926 -170.120 30 996 14 124
2002335S13182 2003 94 SP MM YOLANDE 2002-12-06 00:00:00 NR -23.2000 -169.500 30 996 nadi main 1089 1089 ________O_____ -23.2000 -169.500 30 996 -23.2000 -169.500 30 996 13 130
2002335S13182 2003 94 SP MM YOLANDE 2002-12-06 03:00:00 NR -23.6294 -169.031 main 1146 1146 _______IP_____ -23.5991 -169.064 30 996 -23.6597 -168.998 30 996 12 134
2002335S13182 2003 94 SP MM YOLANDE 2002-12-06 06:00:00 NR -24.0000 -168.600 30 997 nadi main 1202 1202 ________O_____ -24.0000 -168.600 30 997 -24.0000 -168.600 30 997 11 127
2002335S13182 2003 94 SP MM YOLANDE 2002-12-06 09:00:00 NR -24.2636 -168.102 main 1250 1250 _______IP_____ -24.4677 -167.896 30 997 -24.0596 -168.307 30 998 10 113
2002335S13182 2003 94 SP MM YOLANDE 2002-12-06 12:00:00 NR -24.4000 -167.550 30 997 nadi main 1280 1280 ________O_____ -24.8000 -167.100 30 997 -24.0000 -168.000 30 999 10 99
2002335S13182 2003 94 SP MM YOLANDE 2002-12-06 15:00:00 NR -24.4228 -166.996 main 1305 1305 _______IP_____ -24.8465 -166.387 30 997 -23.9991 -167.605 30 998 11 87
2002335S13182 2003 94 SP MM YOLANDE 2002-12-06 18:00:00 NR -24.3500 -166.300 30 998 nadi main 1327 1327 ________O_____ -24.7000 -165.600 30 998 -24.0000 -167.000 30 998 15 82
2002335S13182 2003 94 SP MM YOLANDE 2002-12-06 21:00:00 NR -24.2284 -165.378 main 1364 1364 _______IP_____ -24.4581 -164.606 30 998 -23.9988 -166.150 30 998 18 82
2002335S13182 2003 94 SP MM YOLANDE 2002-12-07 00:00:00 NR -24.1000 -164.300 30 998 nadi main 1419 1419 ________O_____ -24.2000 -163.600 30 998 -24.0000 -165.000 30 998 20 83
2002335S13182 2003 94 SP MM YOLANDE 2002-12-07 03:00:00 NR -23.9934 -163.187 main 1481 1481 _______IP_____ -24.0228 -162.837 30 998 -23.9640 -163.536 30 998 21 87
2002335S13182 2003 94 SP MM YOLANDE 2002-12-07 06:00:00 NR -24.0000 -162.000 30 998 nadi main 1564 1564 ________O_____ -24.0000 -162.000 30 998 -24.0000 -162.000 30 998 22 94
2002335S13182 2003 94 SP MM YOLANDE 2002-12-07 09:00:00 NR -24.1293 -160.763 main 1661 1661 _______IP_____ -24.1230 -160.816 30 998 -24.1356 -160.711 30 998 23 102
2002335S13182 2003 94 SP MM YOLANDE 2002-12-07 12:00:00 NR -24.5000 -159.500 30 998 nadi main 1790 1790 ________O_____ -24.5000 -159.500 30 998 -24.5000 -159.500 30 998 25 114
2002335S13182 2003 94 SP MM YOLANDE 2002-12-07 15:00:00 NR -25.1749 -158.214 main 1941 1941 _______IP_____ -25.1749 -158.214 30 997 -25.1749 -158.214 30 997 27 124
2002335S13182 2003 94 SP MM YOLANDE 2002-12-07 18:00:00 NR -26.0000 -157.000 30 997 wellington main 2090 2090 ________O_____ -26.0000 -157.000 30 997 -26.0000 -157.000 30 997 26 127
2002335S13182 2003 94 SP MM YOLANDE 2002-12-07 21:00:00 NR -26.7491 -155.924 main 2225 2225 _______IP_____ -26.7491 -155.924 30 996 -26.7491 -155.924 30 996 23 130
2002335S13182 2003 94 SP MM YOLANDE 2002-12-08 00:00:00 NR -27.5000 -155.000 30 996 wellington main 2350 2350 ________O_____ -27.5000 -155.000 30 996 -27.5000 -155.000 30 996 22 137
2002335S13182 2003 94 SP MM YOLANDE 2002-12-08 03:00:00 NR -28.3382 -154.250 main 2466 2466 _______IP_____ -28.3382 -154.250 37 994 -28.3382 -154.250 37 994 20 139
2002335S13182 2003 94 SP MM YOLANDE 2002-12-08 06:00:00 NR -29.0000 -153.500 45 992 wellington main 2568 2568 ________O_____ -29.0000 -153.500 45 992 -29.0000 -153.500 45 992 18 121
2002335S13182 2003 94 SP MM YOLANDE 2002-12-08 09:00:00 NR -29.2400 -152.535 main 2659 2659 _______IP_____ -29.2400 -152.535 45 991 -29.2400 -152.535 45 991 18 100
2002335S13182 2003 94 SP MM YOLANDE 2002-12-08 12:00:00 NR -29.3000 -151.500 45 990 wellington main 2745 2745 ________O_____ -29.3000 -151.500 45 990 -29.3000 -151.500 45 990 18 97
2002335S13182 2003 94 SP MM YOLANDE 2002-12-08 15:00:00 NR -29.4408 -150.537 main 2831 2831 _______IP_____ -29.4408 -150.537 45 990 -29.4408 -150.537 45 990 18 100
2002335S13182 2003 94 SP MM YOLANDE 2002-12-08 18:00:00 NR -29.6000 -149.500 45 991 wellington main 2924 2924 ________O_____ -29.6000 -149.500 45 991 -29.6000 -149.500 45 991 20 97
2002335S13182 2003 94 SP MM YOLANDE 2002-12-08 21:00:00 NR -29.6734 -148.246 main 3037 3037 _______IP_____ -29.6734 -148.246 42 991 -29.6734 -148.246 42 991 22 100
2002335S13182 2003 94 SP MM YOLANDE 2002-12-09 00:00:00 NR -30.0000 -147.000 40 991 wellington main 3154 3154 ________O_____ -30.0000 -147.000 40 991 -30.0000 -147.000 40 991 24 123
2002335S13182 2003 94 SP MM YOLANDE 2002-12-09 03:00:00 NR -30.9533 -145.966 main 3292 3292 _______IP_____ -30.9533 -145.966 40 991 -30.9533 -145.966 40 991 26 139
2002335S13182 2003 94 SP MM YOLANDE 2002-12-09 06:00:00 NR -32.0000 -145.000 40 992 wellington main 3352 3352 ________O_____ -32.0000 -145.000 40 992 -32.0000 -145.000 40 992 24 133
2002335S13182 2003 94 SP MM YOLANDE 2002-12-09 09:00:00 NR -32.5756 -143.923 main 3425 3425 _______IP_____ -32.5756 -143.923 40 991 -32.5756 -143.923 40 991 20 121
2002335S13182 2003 94 SP MM YOLANDE 2002-12-09 12:00:00 NR -33.0000 -143.000 40 990 wellington main 3489 3489 ________O_____ -33.0000 -143.000 40 990 -33.0000 -143.000 40 990 16 126
2002335S13182 2003 94 SP MM YOLANDE 2002-12-09 15:00:00 NR -33.4985 -142.423 main 3523 3519 _______IP_____ -33.4985 -142.423 40 989 -33.4985 -142.423 40 989 13 140
2002335S13182 2003 94 SP MM YOLANDE 2002-12-09 18:00:00 NR -34.0000 -142.000 40 989 wellington main 3540 3536 ________O_____ -34.0000 -142.000 40 989 -34.0000 -142.000 40 989 13 146
2002335S13182 2003 94 SP MM YOLANDE 2002-12-09 21:00:00 NR -34.5361 -141.574 main 3558 3558 _______IP_____ -34.5361 -141.574 40 988 -34.5361 -141.574 40 988 13 140
2002335S13182 2003 94 SP MM YOLANDE 2002-12-10 00:00:00 NR -35.0000 -141.000 40 988 wellington main 3593 3593 ________O_____ -35.0000 -141.000 40 988 -35.0000 -141.000 40 988 15 121
2002335S13182 2003 94 SP MM YOLANDE 2002-12-10 03:00:00 NR -35.2891 -140.037 main 3670 3670 _______IP_____ -35.2891 -140.037 40 988 -35.2891 -140.037 40 988 17 107
2002335S13182 2003 94 SP MM YOLANDE 2002-12-10 06:00:00 NR -35.5000 -139.000 40 989 wellington main 3751 3751 ________O_____ -35.5000 -139.000 40 989 -35.5000 -139.000 40 989 15 106
2002335S13182 2003 94 SP MM YOLANDE 2002-12-10 09:00:00 NR -35.7105 -138.248 main 3813 3813 _______IP_____ -35.7105 -138.248 37 989 -35.7105 -138.248 37 989 13 112
2002335S13182 2003 94 SP MM YOLANDE 2002-12-10 12:00:00 NR -36.0000 -137.500 35 990 wellington main 3864 3864 ________O_____ -36.0000 -137.500 35 990 -36.0000 -137.500 35 990 16 119
2002335S13182 2003 94 SP MM YOLANDE 2002-12-10 15:00:00 NR -36.5009 -136.503 main 3935 3935 _______IP_____ -36.5009 -136.503 35 990 -36.5009 -136.503 35 990 19 122
2002335S13182 2003 94 SP MM YOLANDE 2002-12-10 18:00:00 NR -37.0000 -135.500 35 990 wellington main 4005 4005 ________O_____ -37.0000 -135.500 35 990 -37.0000 -135.500 35 990 17 119
2002335S13182 2003 94 SP MM YOLANDE 2002-12-10 21:00:00 NR -37.3122 -134.686 main 4020 3993 _______IP_____ -37.3122 -134.686 35 991 -37.3122 -134.686 35 991 13 113
2002335S13182 2003 94 SP MM YOLANDE 2002-12-11 00:00:00 NR -37.5000 -134.000 35 993 wellington main 3993 ________O_____ -37.5000 -134.000 35 993 -37.5000 -134.000 35 993 12 109

デジタル台風データ・検索

IBTrACS Databaseについて

本データベースは、米国NOAAが公開する1842年以降の世界の熱帯低気圧のベストトラックデータアーカイブInternational Best Track Archive for Climate Stewardship (IBTrACS)を、ウェブで閲覧しやすい形式に変換したものです。

最終更新日:2021-12-06